sensor_id;sensor_type;location;lat;lon;timestamp;pressure;altitude;pressure_sealevel;temperature;humidity
70758;BME280;59316;52.964;7.102;2023-02-12T00:04:30;103702.25;;;8.22;nan
70758;BME280;59316;52.964;7.102;2023-02-12T00:09:35;103704.00;;;8.17;nan
70758;BME280;59316;52.964;7.102;2023-02-12T00:14:38;103715.28;;;8.23;nan
70758;BME280;59316;52.964;7.102;2023-02-12T00:19:41;103712.69;;;8.22;nan
70758;BME280;59316;52.964;7.102;2023-02-12T00:24:44;103707.44;;;8.23;nan
70758;BME280;59316;52.964;7.102;2023-02-12T00:29:47;103712.63;;;8.31;nan
70758;BME280;59316;52.964;7.102;2023-02-12T00:34:49;103727.38;;;8.38;nan
70758;BME280;59316;52.964;7.102;2023-02-12T00:39:52;103723.06;;;8.30;nan
70758;BME280;59316;52.964;7.102;2023-02-12T00:44:56;103716.06;;;8.41;nan
70758;BME280;59316;52.964;7.102;2023-02-12T00:49:58;103725.63;;;8.44;nan
70758;BME280;59316;52.964;7.102;2023-02-12T00:55:01;103719.53;;;8.42;nan
70758;BME280;59316;52.964;7.102;2023-02-12T01:00:04;103726.50;;;8.43;nan
70758;BME280;59316;52.964;7.102;2023-02-12T01:05:09;103734.31;;;8.38;nan
70758;BME280;59316;52.964;7.102;2023-02-12T01:10:12;103729.13;;;8.36;nan
70758;BME280;59316;52.964;7.102;2023-02-12T01:15:16;103734.34;;;8.39;nan
70758;BME280;59316;52.964;7.102;2023-02-12T01:20:21;103726.53;;;8.33;nan
70758;BME280;59316;52.964;7.102;2023-02-12T01:25:25;103732.63;;;8.37;nan
70758;BME280;59316;52.964;7.102;2023-02-12T01:30:29;103726.50;;;8.38;nan
70758;BME280;59316;52.964;7.102;2023-02-12T01:35:32;103728.28;;;8.34;nan
70758;BME280;59316;52.964;7.102;2023-02-12T01:40:35;103733.50;;;8.31;nan
70758;BME280;59316;52.964;7.102;2023-02-12T01:45:43;103727.38;;;8.35;nan
70758;BME280;59316;52.964;7.102;2023-02-12T01:50:48;103724.78;;;8.38;nan
70758;BME280;59316;52.964;7.102;2023-02-12T01:55:54;103730.00;;;8.34;nan
70758;BME280;59316;52.964;7.102;2023-02-12T02:01:00;103723.06;;;8.31;nan
70758;BME280;59316;52.964;7.102;2023-02-12T02:06:07;103716.13;;;8.33;nan
70758;BME280;59316;52.964;7.102;2023-02-12T02:11:20;103722.19;;;8.34;nan
70758;BME280;59316;52.964;7.102;2023-02-12T02:16:25;103716.94;;;8.35;nan
70758;BME280;59316;52.964;7.102;2023-02-12T02:42:32;103710.06;;;8.23;nan
70758;BME280;59316;52.964;7.102;2023-02-12T02:47:38;103713.56;;;8.19;nan
70758;BME280;59316;52.964;7.102;2023-02-12T02:52:47;103707.44;;;8.23;nan
70758;BME280;59316;52.964;7.102;2023-02-12T02:58:17;103706.63;;;8.12;nan
70758;BME280;59316;52.964;7.102;2023-02-12T03:09:17;103711.81;;;8.14;nan
70758;BME280;59316;52.964;7.102;2023-02-12T03:14:29;103709.22;;;8.17;nan
70758;BME280;59316;52.964;7.102;2023-02-12T03:19:36;103702.28;;;8.13;nan
70758;BME280;59316;52.964;7.102;2023-02-12T03:24:44;103704.03;;;8.15;nan
70758;BME280;59316;52.964;7.102;2023-02-12T03:29:48;103702.28;;;8.13;nan
70758;BME280;59316;52.964;7.102;2023-02-12T03:40:14;103697.97;;;8.10;nan
70758;BME280;59316;52.964;7.102;2023-02-12T03:50:52;103697.09;;;8.06;nan
70758;BME280;59316;52.964;7.102;2023-02-12T03:56:12;103694.50;;;8.06;nan
70758;BME280;59316;52.964;7.102;2023-02-12T04:01:32;103708.38;;;8.07;nan
70758;BME280;59316;52.964;7.102;2023-02-12T04:06:35;103704.88;;;8.10;nan
70758;BME280;59316;52.964;7.102;2023-02-12T04:33:24;103727.53;;;8.01;nan
70758;BME280;59316;52.964;7.102;2023-02-12T04:38:47;103729.25;;;8.01;nan
70758;BME280;59316;52.964;7.102;2023-02-12T04:49:38;103728.38;;;7.88;nan
70758;BME280;59316;52.964;7.102;2023-02-12T04:54:41;103732.72;;;7.87;nan
70758;BME280;59316;52.964;7.102;2023-02-12T04:59:44;103726.66;;;7.84;nan
70758;BME280;59316;52.964;7.102;2023-02-12T05:04:49;103727.53;;;7.87;nan
70758;BME280;59316;52.964;7.102;2023-02-12T05:09:53;103731.00;;;7.85;nan
70758;BME280;59316;52.964;7.102;2023-02-12T05:14:56;103731.00;;;7.72;nan
70758;BME280;59316;52.964;7.102;2023-02-12T05:19:59;103726.69;;;7.64;nan
70758;BME280;59316;52.964;7.102;2023-02-12T05:25:02;103727.56;;;7.58;nan
70758;BME280;59316;52.964;7.102;2023-02-12T05:30:08;103731.88;;;7.64;nan
70758;BME280;59316;52.964;7.102;2023-02-12T05:35:11;103731.91;;;7.67;nan
70758;BME280;59316;52.964;7.102;2023-02-12T05:40:14;103744.06;;;7.68;nan
70758;BME280;59316;52.964;7.102;2023-02-12T05:45:20;103745.78;;;7.72;nan
70758;BME280;59316;52.964;7.102;2023-02-12T05:50:22;103738.81;;;7.74;nan
70758;BME280;59316;52.964;7.102;2023-02-12T05:55:33;103737.09;;;7.68;nan
70758;BME280;59316;52.964;7.102;2023-02-12T06:00:36;103740.56;;;7.53;nan
70758;BME280;59316;52.964;7.102;2023-02-12T06:05:39;103750.13;;;7.59;nan
70758;BME280;59316;52.964;7.102;2023-02-12T06:10:42;103753.59;;;7.58;nan
70758;BME280;59316;52.964;7.102;2023-02-12T06:15:45;103757.09;;;7.60;nan
70758;BME280;59316;52.964;7.102;2023-02-12T06:20:48;103755.31;;;7.57;nan
70758;BME280;59316;52.964;7.102;2023-02-12T06:25:56;103752.72;;;7.50;nan
70758;BME280;59316;52.964;7.102;2023-02-12T06:30:59;103760.53;;;7.54;nan
70758;BME280;59316;52.964;7.102;2023-02-12T06:36:02;103766.63;;;7.58;nan
70758;BME280;59316;52.964;7.102;2023-02-12T06:41:05;103775.31;;;7.54;nan
70758;BME280;59316;52.964;7.102;2023-02-12T06:46:08;103780.53;;;7.54;nan
70758;BME280;59316;52.964;7.102;2023-02-12T06:51:13;103788.31;;;7.49;nan
70758;BME280;59316;52.964;7.102;2023-02-12T06:56:18;103803.94;;;7.51;nan
70758;BME280;59316;52.964;7.102;2023-02-12T07:01:23;103799.63;;;7.53;nan
70758;BME280;59316;52.964;7.102;2023-02-12T07:06:28;103809.19;;;7.60;nan
70758;BME280;59316;52.964;7.102;2023-02-12T07:11:32;103806.56;;;7.60;nan
70758;BME280;59316;52.964;7.102;2023-02-12T07:16:39;103813.53;;;7.63;nan
70758;BME280;59316;52.964;7.102;2023-02-12T07:21:42;103823.91;;;7.55;nan
70758;BME280;59316;52.964;7.102;2023-02-12T07:26:45;103835.22;;;7.68;nan
70758;BME280;59316;52.964;7.102;2023-02-12T07:31:48;103838.69;;;7.61;nan
70758;BME280;59316;52.964;7.102;2023-02-12T07:36:51;103839.53;;;7.69;nan
70758;BME280;59316;52.964;7.102;2023-02-12T07:41:55;103845.66;;;7.69;nan
70758;BME280;59316;52.964;7.102;2023-02-12T07:46:58;103849.97;;;7.73;nan
70758;BME280;59316;52.964;7.102;2023-02-12T07:52:01;103847.38;;;7.77;nan
70758;BME280;59316;52.964;7.102;2023-02-12T07:57:04;103847.38;;;7.84;nan
70758;BME280;59316;52.964;7.102;2023-02-12T08:02:08;103850.88;;;7.99;nan
70758;BME280;59316;52.964;7.102;2023-02-12T08:07:11;103856.06;;;8.03;nan
70758;BME280;59316;52.964;7.102;2023-02-12T08:12:14;103860.44;;;8.07;nan
70758;BME280;59316;52.964;7.102;2023-02-12T08:17:16;103856.97;;;8.04;nan
70758;BME280;59316;52.964;7.102;2023-02-12T08:22:19;103865.63;;;8.06;nan
70758;BME280;59316;52.964;7.102;2023-02-12T08:27:22;103871.69;;;8.30;nan
70758;BME280;59316;52.964;7.102;2023-02-12T08:32:25;103860.34;;;8.49;nan
70758;BME280;59316;52.964;7.102;2023-02-12T08:37:28;103869.91;;;8.63;nan
70758;BME280;59316;52.964;7.102;2023-02-12T08:42:31;103868.09;;;8.82;nan
70758;BME280;59316;52.964;7.102;2023-02-12T08:47:34;103872.41;;;8.87;nan
70758;BME280;59316;52.964;7.102;2023-02-12T08:52:36;103876.75;;;8.93;nan
70758;BME280;59316;52.964;7.102;2023-02-12T08:57:41;103883.66;;;9.05;nan
70758;BME280;59316;52.964;7.102;2023-02-12T09:02:44;103882.72;;;9.17;nan
70758;BME280;59316;52.964;7.102;2023-02-12T09:07:46;103886.16;;;9.25;nan
70758;BME280;59316;52.964;7.102;2023-02-12T09:12:49;103893.19;;;9.14;nan
70758;BME280;59316;52.964;7.102;2023-02-12T09:17:52;103896.56;;;9.31;nan
70758;BME280;59316;52.964;7.102;2023-02-12T09:22:56;103904.34;;;9.44;nan
70758;BME280;59316;52.964;7.102;2023-02-12T09:28:00;103900.69;;;9.68;nan
70758;BME280;59316;52.964;7.102;2023-02-12T09:33:04;103908.56;;;9.62;nan
70758;BME280;59316;52.964;7.102;2023-02-12T09:38:08;103902.63;;;9.36;nan
70758;BME280;59316;52.964;7.102;2023-02-12T09:43:15;103910.28;;;9.66;nan
70758;BME280;59316;52.964;7.102;2023-02-12T09:48:29;103907.56;;;9.83;nan
70758;BME280;59316;52.964;7.102;2023-02-12T09:53:36;103910.06;;;9.98;nan
70758;BME280;59316;52.964;7.102;2023-02-12T09:59:00;103910.72;;;10.22;nan
70758;BME280;59316;52.964;7.102;2023-02-12T10:04:07;103913.13;;;10.48;nan
70758;BME280;59316;52.964;7.102;2023-02-12T10:30:15;103926.19;;;10.48;nan
70758;BME280;59316;52.964;7.102;2023-02-12T10:35:25;103922.06;;;11.05;nan
70758;BME280;59316;52.964;7.102;2023-02-12T10:40:30;103919.56;;;10.96;nan
70758;BME280;59316;52.964;7.102;2023-02-12T10:45:38;103918.91;;;10.77;nan
70758;BME280;59316;52.964;7.102;2023-02-12T10:55:45;103921.09;;;11.14;nan
70758;BME280;59316;52.964;7.102;2023-02-12T11:00:54;103915.03;;;11.71;nan
70758;BME280;59316;52.964;7.102;2023-02-12T11:06:16;103917.72;;;11.66;nan
70758;BME280;59316;52.964;7.102;2023-02-12T11:11:28;103920.22;;;11.74;nan
70758;BME280;59316;52.964;7.102;2023-02-12T11:16:33;103916.63;;;12.35;nan
70758;BME280;59316;52.964;7.102;2023-02-12T11:21:37;103910.00;;;13.06;nan
70758;BME280;59316;52.964;7.102;2023-02-12T11:26:40;103914.59;;;12.00;nan
70758;BME280;59316;52.964;7.102;2023-02-12T11:31:43;103907.03;;;11.80;nan
70758;BME280;59316;52.964;7.102;2023-02-12T11:37:02;103896.50;;;11.83;nan
70758;BME280;59316;52.964;7.102;2023-02-12T11:42:06;103895.63;;;12.36;nan
70758;BME280;59316;52.964;7.102;2023-02-12T11:47:19;103886.94;;;11.81;nan
70758;BME280;59316;52.964;7.102;2023-02-12T11:52:28;103891.13;;;11.91;nan
70758;BME280;59316;52.964;7.102;2023-02-12T11:57:34;103888.41;;;11.96;nan
70758;BME280;59316;52.964;7.102;2023-02-12T12:02:37;103882.56;;;12.31;nan
70758;BME280;59316;52.964;7.102;2023-02-12T12:07:44;103874.88;;;12.21;nan
70758;BME280;59316;52.964;7.102;2023-02-12T12:12:58;103873.19;;;12.16;nan
70758;BME280;59316;52.964;7.102;2023-02-12T12:28:51;103863.72;;;12.09;nan
70758;BME280;59316;52.964;7.102;2023-02-12T13:00:48;103848.09;;;12.03;nan
70758;BME280;59316;52.964;7.102;2023-02-12T13:16:57;103832.28;;;12.95;nan
70758;BME280;59316;52.964;7.102;2023-02-12T13:27:32;103822.91;;;12.41;nan
70758;BME280;59316;52.964;7.102;2023-02-12T13:32:38;103821.41;;;12.26;nan
70758;BME280;59316;52.964;7.102;2023-02-12T13:37:44;103824.44;;;12.05;nan
70758;BME280;59316;52.964;7.102;2023-02-12T13:53:33;103824.13;;;11.73;nan
70758;BME280;59316;52.964;7.102;2023-02-12T13:58:49;103822.50;;;11.66;nan
70758;BME280;59316;52.964;7.102;2023-02-12T14:03:53;103817.25;;;11.66;nan
70758;BME280;59316;52.964;7.102;2023-02-12T14:09:06;103819.72;;;11.75;nan
70758;BME280;59316;52.964;7.102;2023-02-12T14:14:11;103812.94;;;11.63;nan
70758;BME280;59316;52.964;7.102;2023-02-12T14:45:36;103807.53;;;11.16;nan
70758;BME280;59316;52.964;7.102;2023-02-12T14:50:43;103816.38;;;11.11;nan
70758;BME280;59316;52.964;7.102;2023-02-12T14:55:46;103804.84;;;11.23;nan
70758;BME280;59316;52.964;7.102;2023-02-12T15:00:50;103808.53;;;11.08;nan
70758;BME280;59316;52.964;7.102;2023-02-12T15:16:16;103801.47;;;11.14;nan
70758;BME280;59316;52.964;7.102;2023-02-12T15:21:30;103805.97;;;11.05;nan
70758;BME280;59316;52.964;7.102;2023-02-12T15:26:47;103804.28;;;11.00;nan
70758;BME280;59316;52.964;7.102;2023-02-12T15:31:55;103801.72;;;10.96;nan
70758;BME280;59316;52.964;7.102;2023-02-12T15:37:00;103800.97;;;10.89;nan
70758;BME280;59316;52.964;7.102;2023-02-12T15:42:04;103800.19;;;10.82;nan
70758;BME280;59316;52.964;7.102;2023-02-12T15:47:28;103795.03;;;10.76;nan
70758;BME280;59316;52.964;7.102;2023-02-12T15:52:33;103796.91;;;10.65;nan
70758;BME280;59316;52.964;7.102;2023-02-12T15:57:39;103796.06;;;10.63;nan
70758;BME280;59316;52.964;7.102;2023-02-12T16:02:42;103796.28;;;10.41;nan
70758;BME280;59316;52.964;7.102;2023-02-12T16:07:53;103805.84;;;10.44;nan
70758;BME280;59316;52.964;7.102;2023-02-12T16:12:56;103793.75;;;10.36;nan
70758;BME280;59316;52.964;7.102;2023-02-12T16:18:00;103785.06;;;10.33;nan
70758;BME280;59316;52.964;7.102;2023-02-12T16:23:05;103795.69;;;10.17;nan
70758;BME280;59316;52.964;7.102;2023-02-12T16:28:16;103792.09;;;10.28;nan
70758;BME280;59316;52.964;7.102;2023-02-12T16:33:38;103794.75;;;10.23;nan
70758;BME280;59316;52.964;7.102;2023-02-12T16:38:53;103803.53;;;10.17;nan
70758;BME280;59316;52.964;7.102;2023-02-12T16:49:05;103808.09;;;9.98;nan
70758;BME280;59316;52.964;7.102;2023-02-12T16:54:24;103808.09;;;9.95;nan
70758;BME280;59316;52.964;7.102;2023-02-12T16:59:34;103812.53;;;9.92;nan
70758;BME280;59316;52.964;7.102;2023-02-12T17:04:37;103809.97;;;9.84;nan
70758;BME280;59316;52.964;7.102;2023-02-12T17:09:41;103818.66;;;9.84;nan
70758;BME280;59316;52.964;7.102;2023-02-12T17:14:43;103818.69;;;9.80;nan
70758;BME280;59316;52.964;7.102;2023-02-12T17:19:46;103826.56;;;9.78;nan
70758;BME280;59316;52.964;7.102;2023-02-12T17:24:49;103833.63;;;9.70;nan
70758;BME280;59316;52.964;7.102;2023-02-12T17:29:52;103843.19;;;9.69;nan
70758;BME280;59316;52.964;7.102;2023-02-12T17:34:55;103838.84;;;9.70;nan
70758;BME280;59316;52.964;7.102;2023-02-12T17:39:58;103846.69;;;9.67;nan
70758;BME280;59316;52.964;7.102;2023-02-12T17:45:01;103858.03;;;9.64;nan
70758;BME280;59316;52.964;7.102;2023-02-12T17:50:08;103858.94;;;9.60;nan
70758;BME280;59316;52.964;7.102;2023-02-12T17:55:12;103862.47;;;9.54;nan
70758;BME280;59316;52.964;7.102;2023-02-12T18:00:15;103864.22;;;9.54;nan
70758;BME280;59316;52.964;7.102;2023-02-12T18:05:19;103870.25;;;9.59;nan
70758;BME280;59316;52.964;7.102;2023-02-12T18:10:21;103867.69;;;9.53;nan
70758;BME280;59316;52.964;7.102;2023-02-12T18:15:24;103873.75;;;9.60;nan
70758;BME280;59316;52.964;7.102;2023-02-12T18:20:28;103873.81;;;9.52;nan
70758;BME280;59316;52.964;7.102;2023-02-12T18:25:31;103872.97;;;9.48;nan
70758;BME280;59316;52.964;7.102;2023-02-12T18:30:34;103872.91;;;9.58;nan
70758;BME280;59316;52.964;7.102;2023-02-12T18:35:37;103876.38;;;9.60;nan
70758;BME280;59316;52.964;7.102;2023-02-12T18:40:40;103877.19;;;9.66;nan
70758;BME280;59316;52.964;7.102;2023-02-12T18:45:43;103878.09;;;9.59;nan
70758;BME280;59316;52.964;7.102;2023-02-12T18:50:45;103868.53;;;9.60;nan
70758;BME280;59316;52.964;7.102;2023-02-12T18:55:48;103867.72;;;9.51;nan
70758;BME280;59316;52.964;7.102;2023-02-12T19:00:51;103862.53;;;9.48;nan
70758;BME280;59316;52.964;7.102;2023-02-12T19:06:01;103869.47;;;9.48;nan
70758;BME280;59316;52.964;7.102;2023-02-12T19:11:05;103864.19;;;9.57;nan
70758;BME280;59316;52.964;7.102;2023-02-12T19:16:10;103866.03;;;9.46;nan
70758;BME280;59316;52.964;7.102;2023-02-12T19:21:15;103869.53;;;9.38;nan
70758;BME280;59316;52.964;7.102;2023-02-12T19:26:18;103872.13;;;9.45;nan
70758;BME280;59316;52.964;7.102;2023-02-12T19:31:22;103870.34;;;9.45;nan
70758;BME280;59316;52.964;7.102;2023-02-12T19:36:31;103873.03;;;9.36;nan
70758;BME280;59316;52.964;7.102;2023-02-12T19:41:34;103867.88;;;9.27;nan
70758;BME280;59316;52.964;7.102;2023-02-12T19:46:37;103874.81;;;9.26;nan
70758;BME280;59316;52.964;7.102;2023-02-12T19:51:41;103873.16;;;9.10;nan
70758;BME280;59316;52.964;7.102;2023-02-12T19:56:44;103872.31;;;9.08;nan
70758;BME280;59316;52.964;7.102;2023-02-12T20:01:48;103873.25;;;8.97;nan
70758;BME280;59316;52.964;7.102;2023-02-12T20:06:51;103881.06;;;8.94;nan
70758;BME280;59316;52.964;7.102;2023-02-12T20:11:54;103875.03;;;8.81;nan
70758;BME280;59316;52.964;7.102;2023-02-12T20:16:57;103862.03;;;8.70;nan
70758;BME280;59316;52.964;7.102;2023-02-12T20:22:00;103866.41;;;8.67;nan
70758;BME280;59316;52.964;7.102;2023-02-12T20:27:03;103862.06;;;8.58;nan
70758;BME280;59316;52.964;7.102;2023-02-12T20:32:06;103859.47;;;8.61;nan
70758;BME280;59316;52.964;7.102;2023-02-12T20:37:09;103862.06;;;8.63;nan
70758;BME280;59316;52.964;7.102;2023-02-12T20:42:11;103860.34;;;8.60;nan
70758;BME280;59316;52.964;7.102;2023-02-12T20:47:14;103859.47;;;8.55;nan
70758;BME280;59316;52.964;7.102;2023-02-12T20:52:17;103857.72;;;8.55;nan
70758;BME280;59316;52.964;7.102;2023-02-12T20:57:20;103857.72;;;8.57;nan
70758;BME280;59316;52.964;7.102;2023-02-12T21:02:23;103849.94;;;8.46;nan
70758;BME280;59316;52.964;7.102;2023-02-12T21:07:26;103853.38;;;8.59;nan
70758;BME280;59316;52.964;7.102;2023-02-12T21:12:29;103856.84;;;8.58;nan
70758;BME280;59316;52.964;7.102;2023-02-12T21:17:32;103862.94;;;8.57;nan
70758;BME280;59316;52.964;7.102;2023-02-12T21:22:35;103864.69;;;8.55;nan
70758;BME280;59316;52.964;7.102;2023-02-12T21:27:38;103861.22;;;8.58;nan
70758;BME280;59316;52.964;7.102;2023-02-12T21:32:41;103866.41;;;8.54;nan
70758;BME280;59316;52.964;7.102;2023-02-12T21:37:44;103863.84;;;8.51;nan
70758;BME280;59316;52.964;7.102;2023-02-12T21:42:47;103860.38;;;8.46;nan
70758;BME280;59316;52.964;7.102;2023-02-12T21:47:51;103865.59;;;8.38;nan
70758;BME280;59316;52.964;7.102;2023-02-12T21:52:53;103852.56;;;8.42;nan
70758;BME280;59316;52.964;7.102;2023-02-12T21:57:57;103857.78;;;8.38;nan
70758;BME280;59316;52.964;7.102;2023-02-12T22:02:59;103852.59;;;8.29;nan
70758;BME280;59316;52.964;7.102;2023-02-12T22:08:02;103851.72;;;8.16;nan
70758;BME280;59316;52.964;7.102;2023-02-12T22:13:06;103844.78;;;8.14;nan
70758;BME280;59316;52.964;7.102;2023-02-12T22:18:08;103845.63;;;8.25;nan
70758;BME280;59316;52.964;7.102;2023-02-12T22:23:12;103836.09;;;8.18;nan
70758;BME280;59316;52.964;7.102;2023-02-12T22:28:15;103845.63;;;8.17;nan
70758;BME280;59316;52.964;7.102;2023-02-12T22:33:18;103836.97;;;8.09;nan
70758;BME280;59316;52.964;7.102;2023-02-12T22:38:21;103831.75;;;8.18;nan
70758;BME280;59316;52.964;7.102;2023-02-12T22:43:24;103835.22;;;8.20;nan
70758;BME280;59316;52.964;7.102;2023-02-12T22:48:29;103841.31;;;8.18;nan
70758;BME280;59316;52.964;7.102;2023-02-12T22:53:32;103838.69;;;8.13;nan
70758;BME280;59316;52.964;7.102;2023-02-12T22:58:35;103842.19;;;8.11;nan
70758;BME280;59316;52.964;7.102;2023-02-12T23:03:38;103839.59;;;8.09;nan
70758;BME280;59316;52.964;7.102;2023-02-12T23:08:42;103838.69;;;8.15;nan
70758;BME280;59316;52.964;7.102;2023-02-12T23:13:46;103843.06;;;8.13;nan
70758;BME280;59316;52.964;7.102;2023-02-12T23:18:52;103836.97;;;8.07;nan
70758;BME280;59316;52.964;7.102;2023-02-12T23:23:56;103842.16;;;7.97;nan
70758;BME280;59316;52.964;7.102;2023-02-12T23:29:00;103836.13;;;8.10;nan
70758;BME280;59316;52.964;7.102;2023-02-12T23:34:03;103834.34;;;7.97;nan
70758;BME280;59316;52.964;7.102;2023-02-12T23:39:06;103830.91;;;8.02;nan
70758;BME280;59316;52.964;7.102;2023-02-12T23:44:10;103825.66;;;7.98;nan
70758;BME280;59316;52.964;7.102;2023-02-12T23:49:13;103833.47;;;7.87;nan
70758;BME280;59316;52.964;7.102;2023-02-12T23:54:16;103823.06;;;7.99;nan
70758;BME280;59316;52.964;7.102;2023-02-12T23:59:19;103819.59;;;8.00;nan
